Impacts TAF Board
For situational awareness. Not to be used for flight planning purposes.
IDs:

KJFK - New York/Kennedy Int, NY, US

Issued at 0555 UTC 21 Sep 2018
Updated at 0821 UTC 21 Sep 2018
Potential Impact None Slight Moderate High
Time<<22/09Z 22/10Z 22/11Z 22/12Z 22/13Z 22/14Z 22/15Z 22/16Z 22/17Z 22/18Z 22/19Z 22/20Z 22/21Z
Type PRVL PRVL PRVL
VIS >6 >6 >6
CIG 50 50 50
Cover BKN BKN BKN
FltCat VFR VFR VFR
WX -- -- --
WDir 210 210 210
WSpd 13 13 13
WGst -- -- --
Raw TAF
KJFK 210555Z 2106/2212 13006KT P6SM BKN025
  FM211600 17012G19KT P6SM SCT025 BKN035
  FM212100 18018G25KT P6SM SCT035 BKN050
  FM220300 21015G22KT P6SM SCT035 BKN050
  FM220500 21013KT P6SM BKN050


METAR Board
Radar Display
Forecast Discussion
For situational awareness. Not to be used for flight planning purposes.